createdAt,value
2023-02-15T00:00:42.461Z,21.38
2023-02-15T00:03:10.489Z,20.55
2023-02-15T00:05:38.554Z,19.40
2023-02-15T00:08:06.566Z,19.15
2023-02-15T00:10:34.499Z,19.40
2023-02-15T00:13:02.679Z,20.50
2023-02-15T00:15:30.616Z,19.67
2023-02-15T00:17:59.349Z,19.95
2023-02-15T00:20:27.296Z,18.60
2023-02-15T00:22:56.004Z,19.13
2023-02-15T00:25:23.904Z,19.42
2023-02-15T00:27:51.891Z,18.70
2023-02-15T00:30:19.942Z,19.35
2023-02-15T00:32:50.124Z,18.98
2023-02-15T00:35:18.206Z,20.35
2023-02-15T00:37:46.188Z,20.10
2023-02-15T00:40:14.364Z,18.27
2023-02-15T00:42:42.295Z,17.70
2023-02-15T00:45:11.009Z,18.02
2023-02-15T00:47:39.009Z,18.33
2023-02-15T00:50:10.486Z,18.77
2023-02-15T00:52:39.468Z,17.92
2023-02-15T00:55:10.442Z,18.17
2023-02-15T00:57:41.588Z,18.60
2023-02-15T01:00:10.107Z,18.20
2023-02-15T01:02:37.997Z,19.70
2023-02-15T01:05:07.979Z,18.50
2023-02-15T01:07:35.909Z,18.63
2023-02-15T01:10:03.936Z,17.23
2023-02-15T01:12:34.513Z,17.53
2023-02-15T01:15:02.479Z,16.67
2023-02-15T01:17:30.812Z,17.92
2023-02-15T01:19:58.757Z,17.23
2023-02-15T01:22:27.078Z,18.35
2023-02-15T01:24:56.279Z,17.55
2023-02-15T01:27:24.204Z,17.80
2023-02-15T01:29:52.164Z,17.92
2023-02-15T01:32:20.095Z,17.60
2023-02-15T01:34:48.685Z,18.23
2023-02-15T01:37:16.585Z,18.10
2023-02-15T01:39:44.519Z,18.42
2023-02-15T01:42:13.507Z,17.30
2023-02-15T01:45:01.812Z,18.13
2023-02-15T01:47:45.697Z,16.30
2023-02-15T01:50:35.187Z,16.85
2023-02-15T01:53:15.058Z,17.30
2023-02-15T01:55:49.336Z,16.52
2023-02-15T01:58:17.804Z,16.80
2023-02-15T02:00:47.390Z,15.80
2023-02-15T02:03:16.367Z,16.73
2023-02-15T02:05:44.797Z,16.77
2023-02-15T02:08:14.244Z,16.55
2023-02-15T02:10:42.228Z,16.02
2023-02-15T02:13:10.258Z,16.23
2023-02-15T02:15:54.464Z,16.85
2023-02-15T02:18:34.572Z,16.17
2023-02-15T02:21:28.363Z,17.00
2023-02-15T02:24:20.051Z,14.98
2023-02-15T02:27:07.536Z,15.18
2023-02-15T02:29:58.888Z,15.23
2023-02-15T02:33:04.625Z,17.33
2023-02-15T02:36:11.444Z,15.43
2023-02-15T02:38:47.725Z,15.68
2023-02-15T02:41:26.536Z,15.88
2023-02-15T02:43:58.958Z,15.90
2023-02-15T02:46:43.369Z,16.80
2023-02-15T02:49:11.419Z,15.15
2023-02-15T02:51:39.333Z,16.98
2023-02-15T02:54:09.313Z,16.00
2023-02-15T02:56:46.867Z,16.90
2023-02-15T02:59:35.575Z,16.80
2023-02-15T03:02:15.005Z,17.48
2023-02-15T03:04:47.983Z,16.15
2023-02-15T03:07:24.028Z,16.55
2023-02-15T03:09:59.075Z,16.83
2023-02-15T03:12:34.140Z,16.92
2023-02-15T03:15:08.607Z,16.90
2023-02-15T03:17:42.840Z,17.65
2023-02-15T03:20:27.855Z,17.77
2023-02-15T03:23:00.268Z,16.92
2023-02-15T03:25:37.311Z,17.35
2023-02-15T03:28:09.901Z,16.92
2023-02-15T03:30:40.124Z,16.23
2023-02-15T03:33:10.912Z,15.82
2023-02-15T03:35:59.080Z,16.58
2023-02-15T03:38:53.774Z,16.92
2023-02-15T03:41:27.013Z,17.92
2023-02-15T03:43:57.141Z,16.13
2023-02-15T03:46:46.154Z,17.77
2023-02-15T03:49:26.239Z,16.88
2023-02-15T03:51:57.440Z,17.52
2023-02-15T03:57:43.872Z,17.35
2023-02-15T04:00:42.982Z,17.92
2023-02-15T04:03:24.598Z,16.55
2023-02-15T04:05:52.814Z,16.50
2023-02-15T04:08:20.953Z,16.08
2023-02-15T04:10:54.793Z,17.90
2023-02-15T04:13:24.889Z,15.82
2023-02-15T04:16:08.512Z,15.25
2023-02-15T04:19:01.568Z,14.77
2023-02-15T04:21:50.774Z,15.48
2023-02-15T04:24:37.567Z,15.38
2023-02-15T04:27:10.150Z,14.02
2023-02-15T04:29:38.121Z,14.05
2023-02-15T04:32:06.205Z,15.27
2023-02-15T04:34:34.196Z,14.95
2023-02-15T04:37:02.080Z,14.43
2023-02-15T04:39:30.059Z,14.35
2023-02-15T04:41:57.948Z,15.20
2023-02-15T04:44:25.925Z,17.77
2023-02-15T04:46:53.865Z,16.45
2023-02-15T04:49:21.773Z,14.38
2023-02-15T04:51:49.666Z,13.80
2023-02-15T04:54:17.606Z,12.85
2023-02-15T04:56:45.730Z,12.65
2023-02-15T04:59:14.235Z,12.57
2023-02-15T05:01:42.204Z,13.48
2023-02-15T05:04:10.209Z,12.95
2023-02-15T05:06:38.352Z,13.82
2023-02-15T05:09:06.310Z,12.55
2023-02-15T05:11:34.332Z,14.20
2023-02-15T05:14:02.219Z,15.10
2023-02-15T05:16:30.156Z,15.10
2023-02-15T05:18:58.117Z,13.93
2023-02-15T05:21:26.194Z,13.30
2023-02-15T05:23:54.235Z,13.25
2023-02-15T05:26:43.647Z,13.88
2023-02-15T05:29:12.564Z,12.07
2023-02-15T05:31:40.760Z,11.95
2023-02-15T05:34:08.727Z,13.35
2023-02-15T05:36:36.616Z,13.45
2023-02-15T05:39:06.140Z,15.25
2023-02-15T05:41:34.022Z,14.40
2023-02-15T05:44:01.904Z,15.07
2023-02-15T05:46:29.882Z,15.02
2023-02-15T05:48:57.838Z,15.25
2023-02-15T05:51:25.748Z,14.63
2023-02-15T05:53:53.640Z,14.50
2023-02-15T05:56:21.653Z,14.82
2023-02-15T05:58:49.970Z,13.32
2023-02-15T06:01:20.264Z,15.13
2023-02-15T06:03:51.348Z,15.15
2023-02-15T06:06:21.942Z,15.00
2023-02-15T06:08:50.004Z,16.08
2023-02-15T06:11:18.750Z,16.02
2023-02-15T06:13:46.696Z,16.30
2023-02-15T06:16:14.645Z,16.58
2023-02-15T06:18:42.603Z,20.98
2023-02-15T06:21:10.522Z,16.85
2023-02-15T06:23:38.453Z,16.67
2023-02-15T06:26:06.400Z,15.70
2023-02-15T06:28:34.321Z,17.17
2023-02-15T06:31:02.326Z,18.13
2023-02-15T06:33:32.450Z,18.35
2023-02-15T06:36:00.635Z,18.35
2023-02-15T06:38:28.966Z,16.40
2023-02-15T06:40:56.926Z,16.85
2023-02-15T06:43:24.840Z,16.88
2023-02-15T06:45:52.785Z,17.70
2023-02-15T06:48:20.680Z,17.55
2023-02-15T06:50:48.569Z,16.40
2023-02-15T06:53:16.467Z,15.27
2023-02-15T06:55:44.430Z,16.27
2023-02-15T06:58:12.311Z,16.38
2023-02-15T07:00:40.225Z,16.13
2023-02-15T07:03:08.133Z,16.30
2023-02-15T07:05:36.783Z,16.08
2023-02-15T07:08:04.997Z,16.73
2023-02-15T07:10:32.952Z,16.80
2023-02-15T07:13:00.862Z,20.35
2023-02-15T07:15:28.855Z,16.33
2023-02-15T07:17:56.777Z,17.50
2023-02-15T07:20:25.782Z,16.40
2023-02-15T07:22:53.891Z,17.92
2023-02-15T07:25:22.206Z,18.15
2023-02-15T07:27:50.310Z,17.10
2023-02-15T07:30:19.351Z,18.13
2023-02-15T07:33:06.341Z,18.70
2023-02-15T07:35:35.348Z,16.73
2023-02-15T07:38:03.328Z,16.80
2023-02-15T07:40:31.392Z,15.55
2023-02-15T07:43:05.217Z,16.98
2023-02-15T07:45:35.997Z,16.10
2023-02-15T07:48:04.633Z,16.40
2023-02-15T07:50:33.588Z,17.17
2023-02-15T07:53:04.244Z,16.95
2023-02-15T07:55:32.712Z,15.95
2023-02-15T07:58:00.595Z,16.60
2023-02-15T08:00:29.154Z,17.50
2023-02-15T08:03:16.798Z,15.75
2023-02-15T08:05:47.051Z,15.88
2023-02-15T08:08:31.714Z,16.95
2023-02-15T08:11:20.259Z,15.73
2023-02-15T08:14:01.016Z,16.45
2023-02-15T08:16:45.623Z,16.23
2023-02-15T08:19:28.784Z,15.85
2023-02-15T08:21:59.566Z,15.00
2023-02-15T08:24:30.387Z,15.07
2023-02-15T08:26:59.706Z,15.07
2023-02-15T08:29:30.320Z,16.27
2023-02-15T08:32:06.392Z,14.80
2023-02-15T08:34:40.483Z,18.08
2023-02-15T08:37:08.793Z,17.17
2023-02-15T08:39:37.092Z,18.58
2023-02-15T08:42:05.340Z,15.88
2023-02-15T08:44:33.356Z,17.30
2023-02-15T08:47:06.965Z,15.90
2023-02-15T08:49:34.932Z,15.80
2023-02-15T08:52:02.920Z,15.02
2023-02-15T08:54:31.679Z,15.80
2023-02-15T08:56:59.689Z,14.98
2023-02-15T08:59:29.010Z,16.60
2023-02-15T09:01:57.466Z,15.70
2023-02-15T09:04:25.468Z,14.32
2023-02-15T09:06:54.784Z,15.50
2023-02-15T09:09:23.833Z,14.80
2023-02-15T09:11:58.859Z,15.18
2023-02-15T09:14:28.625Z,15.73
2023-02-15T09:16:56.729Z,15.50
2023-02-15T09:19:25.697Z,16.33
2023-02-15T09:21:53.713Z,16.60
2023-02-15T09:24:21.796Z,14.98
2023-02-15T09:26:50.703Z,15.23
2023-02-15T09:29:20.026Z,15.00
2023-02-15T09:31:51.324Z,15.68
2023-02-15T09:36:49.939Z,15.15
2023-02-15T09:39:19.215Z,15.80
2023-02-15T09:42:15.076Z,16.67
2023-02-15T09:45:11.201Z,16.48
2023-02-15T09:48:07.716Z,17.55
2023-02-15T09:50:57.565Z,15.70
2023-02-15T09:54:10.784Z,16.60
2023-02-15T09:56:53.419Z,16.33
2023-02-15T09:59:36.414Z,16.10
2023-02-15T10:02:24.565Z,16.13
2023-02-15T10:05:12.876Z,15.95
2023-02-15T10:08:17.760Z,15.13
2023-02-15T10:11:27.405Z,17.02
2023-02-15T10:14:16.709Z,16.48
2023-02-15T10:17:28.688Z,16.20
2023-02-15T10:20:06.985Z,15.18
2023-02-15T10:23:06.939Z,15.65
2023-02-15T10:26:03.467Z,13.68
2023-02-15T10:28:54.195Z,14.70
2023-02-15T10:32:00.490Z,14.40
2023-02-15T10:35:07.285Z,15.50
2023-02-15T10:38:01.480Z,14.48
2023-02-15T10:40:38.236Z,15.05
2023-02-15T10:43:20.253Z,14.88
2023-02-15T10:46:12.737Z,14.60
2023-02-15T10:49:05.127Z,14.07
2023-02-15T10:52:16.651Z,14.65
2023-02-15T10:55:00.324Z,14.40
2023-02-15T10:57:43.517Z,14.38
2023-02-15T11:00:52.195Z,14.32
2023-02-15T11:03:25.957Z,13.80
2023-02-15T11:06:06.799Z,13.60
2023-02-15T11:08:42.299Z,13.02
2023-02-15T11:11:14.662Z,13.07
2023-02-15T11:13:50.020Z,14.18
2023-02-15T11:16:55.067Z,13.15
2023-02-15T11:19:34.222Z,14.10
2023-02-15T11:22:05.912Z,14.65
2023-02-15T11:24:41.068Z,14.05
2023-02-15T11:27:17.624Z,15.05
2023-02-15T11:29:54.373Z,14.05
2023-02-15T11:32:25.089Z,14.32
2023-02-15T11:35:05.078Z,13.82
2023-02-15T11:37:57.401Z,13.48
2023-02-15T11:40:43.623Z,14.40
2023-02-15T11:43:38.160Z,14.38
2023-02-15T11:46:06.954Z,14.57
2023-02-15T11:48:35.398Z,14.50
2023-02-15T11:51:05.444Z,14.98
2023-02-15T11:53:40.138Z,14.18
2023-02-15T11:56:16.463Z,15.07
2023-02-15T11:58:59.200Z,13.77
2023-02-15T12:01:38.852Z,14.15
2023-02-15T12:04:26.278Z,13.40
2023-02-15T12:07:03.158Z,13.70
2023-02-15T12:09:36.465Z,12.55
2023-02-15T12:12:34.876Z,14.90
2023-02-15T12:15:10.815Z,13.73
2023-02-15T12:17:42.979Z,13.20
2023-02-15T12:20:16.812Z,12.55
2023-02-15T12:23:16.925Z,13.02
2023-02-15T12:25:56.625Z,13.30
2023-02-15T12:28:27.070Z,13.07
2023-02-15T12:30:59.586Z,12.17
2023-02-15T12:33:36.998Z,13.60
2023-02-15T12:36:21.076Z,13.52
2023-02-15T12:39:17.636Z,13.65
2023-02-15T12:42:20.677Z,14.70
2023-02-15T12:44:58.294Z,13.27
2023-02-15T12:47:29.632Z,14.32
2023-02-15T12:52:49.509Z,14.13
2023-02-15T12:55:36.697Z,14.13
2023-02-15T12:58:32.392Z,14.57
2023-02-15T13:01:23.964Z,14.85
2023-02-15T13:04:15.988Z,14.73
2023-02-15T13:06:51.105Z,16.67
2023-02-15T13:09:23.616Z,16.25
2023-02-15T13:11:51.888Z,15.55
2023-02-15T13:14:36.147Z,15.60
2023-02-15T13:17:08.766Z,14.88
2023-02-15T13:19:39.300Z,16.33
2023-02-15T13:22:35.237Z,16.00
2023-02-15T13:25:15.208Z,15.85
2023-02-15T13:27:45.904Z,17.73
2023-02-15T13:30:29.027Z,17.13
2023-02-15T13:33:02.654Z,16.02
2023-02-15T13:35:42.233Z,17.13
2023-02-15T13:38:37.707Z,16.73
2023-02-15T13:41:11.602Z,17.00
2023-02-15T13:43:58.610Z,17.27
2023-02-15T13:46:45.623Z,17.85
2023-02-15T13:49:25.497Z,18.13
2023-02-15T13:52:13.593Z,18.50
2023-02-15T13:54:49.912Z,18.65
2023-02-15T13:57:51.065Z,19.10
2023-02-15T14:00:48.503Z,19.45
2023-02-15T14:03:36.452Z,18.70
2023-02-15T14:06:40.679Z,19.08
2023-02-15T14:09:14.565Z,18.25
2023-02-15T14:12:00.988Z,17.65
2023-02-15T14:14:54.526Z,18.63
2023-02-15T14:17:57.784Z,19.77
2023-02-15T14:20:43.863Z,19.08
2023-02-15T14:23:35.929Z,18.27
2023-02-15T14:26:34.722Z,18.20
2023-02-15T14:29:26.782Z,18.38
2023-02-15T14:31:58.415Z,18.33
2023-02-15T14:34:53.964Z,18.60
2023-02-15T14:37:44.419Z,17.55
2023-02-15T14:40:59.166Z,16.52
2023-02-15T14:43:51.463Z,19.10
2023-02-15T14:46:50.533Z,19.80
2023-02-15T14:49:25.597Z,20.08
2023-02-15T14:52:03.358Z,19.42
2023-02-15T14:54:32.328Z,18.30
2023-02-15T14:57:03.054Z,19.35
2023-02-15T14:59:39.795Z,18.55
2023-02-15T15:02:10.609Z,18.38
2023-02-15T15:04:58.535Z,19.05
2023-02-15T15:07:50.986Z,18.90
2023-02-15T15:10:18.999Z,20.02
2023-02-15T15:12:57.439Z,18.85
2023-02-15T15:15:34.228Z,20.10
2023-02-15T15:18:10.629Z,19.70
2023-02-15T15:20:46.838Z,20.85
2023-02-15T15:23:17.917Z,20.35
2023-02-15T15:25:53.923Z,19.63
2023-02-15T15:28:39.700Z,20.33
2023-02-15T15:31:21.118Z,19.63
2023-02-15T15:34:12.798Z,20.20
2023-02-15T15:39:21.999Z,20.60
2023-02-15T15:42:10.137Z,20.08
2023-02-15T15:45:15.088Z,21.38
2023-02-15T15:48:06.603Z,22.05
2023-02-15T15:50:38.566Z,20.85
2023-02-15T15:53:06.885Z,21.27
2023-02-15T15:55:36.537Z,21.52
2023-02-15T15:58:10.221Z,21.45
2023-02-15T16:00:50.861Z,20.08
2023-02-15T16:03:24.294Z,21.53
2023-02-15T16:05:56.436Z,24.75
2023-02-15T16:08:38.324Z,22.80
2023-02-15T16:11:18.444Z,22.42
2023-02-15T16:13:46.769Z,21.67
2023-02-15T16:16:16.370Z,21.38
2023-02-15T16:18:48.410Z,20.00
2023-02-15T16:21:31.617Z,22.75
2023-02-15T16:24:19.703Z,22.23
2023-02-15T16:27:14.002Z,20.90
2023-02-15T16:29:42.063Z,22.30
2023-02-15T16:32:24.618Z,22.90
2023-02-15T16:35:01.328Z,21.52
2023-02-15T16:37:34.842Z,22.58
2023-02-15T16:40:03.286Z,23.35
2023-02-15T16:42:31.353Z,22.52
2023-02-15T16:45:08.369Z,22.88
2023-02-15T16:47:42.386Z,23.33
2023-02-15T16:50:24.798Z,23.58
2023-02-15T16:52:54.480Z,25.83
2023-02-15T16:55:31.223Z,22.35
2023-02-15T16:58:06.182Z,23.85
2023-02-15T17:00:42.546Z,21.90
2023-02-15T17:03:16.743Z,21.40
2023-02-15T17:05:47.401Z,22.50
2023-02-15T17:08:20.053Z,21.98
2023-02-15T17:11:06.011Z,22.05
2023-02-15T17:13:34.104Z,21.45
2023-02-15T17:16:02.452Z,24.50
2023-02-15T17:18:33.736Z,24.92
2023-02-15T17:21:21.285Z,23.33
2023-02-15T17:23:53.252Z,23.30
2023-02-15T17:26:26.869Z,23.02
2023-02-15T17:29:04.812Z,22.55
2023-02-15T17:31:35.066Z,23.45
2023-02-15T17:34:04.095Z,23.55
2023-02-15T17:36:33.693Z,24.33
2023-02-15T17:39:01.739Z,24.30
2023-02-15T17:41:36.229Z,24.75
2023-02-15T17:44:05.152Z,24.85
2023-02-15T17:46:39.076Z,27.52
2023-02-15T17:49:07.168Z,26.48
2023-02-15T17:51:37.134Z,26.98
2023-02-15T17:54:26.614Z,27.90
2023-02-15T17:56:59.421Z,26.90
2023-02-15T17:59:27.739Z,26.08
2023-02-15T18:02:14.006Z,25.55
2023-02-15T18:05:01.125Z,26.75
2023-02-15T18:07:50.636Z,25.67
2023-02-15T18:10:39.078Z,25.35
2023-02-15T18:13:06.977Z,26.73
2023-02-15T18:15:35.705Z,28.52
2023-02-15T18:18:04.053Z,27.77
2023-02-15T18:20:38.525Z,27.90
2023-02-15T18:23:07.637Z,27.55
2023-02-15T18:25:35.636Z,27.08
2023-02-15T18:28:03.645Z,29.50
2023-02-15T18:30:32.041Z,28.60
2023-02-15T18:33:00.897Z,27.70
2023-02-15T18:35:32.411Z,27.45
2023-02-15T18:38:02.544Z,27.77
2023-02-15T18:40:30.920Z,27.23
2023-02-15T18:42:58.846Z,26.77
2023-02-15T18:45:33.551Z,26.85
2023-02-15T18:48:01.650Z,28.38
2023-02-15T18:50:35.020Z,27.40
2023-02-15T18:53:07.119Z,27.55
2023-02-15T18:55:40.306Z,27.90
2023-02-15T18:58:17.671Z,31.15
2023-02-15T19:00:46.599Z,33.25
2023-02-15T19:03:16.317Z,34.88
2023-02-15T19:05:47.093Z,30.55
2023-02-15T19:08:20.982Z,31.15
2023-02-15T19:10:49.525Z,32.30
2023-02-15T19:13:18.508Z,31.80
2023-02-15T19:15:46.850Z,31.30
2023-02-15T19:18:14.825Z,30.67
2023-02-15T19:20:47.543Z,34.03
2023-02-15T19:23:25.903Z,32.40
2023-02-15T19:25:55.222Z,32.95
2023-02-15T19:28:33.524Z,32.83
2023-02-15T19:31:05.818Z,31.58
2023-02-15T19:33:36.434Z,32.67
2023-02-15T19:36:14.684Z,32.42
2023-02-15T19:38:43.108Z,31.77
2023-02-15T19:41:30.512Z,32.92
2023-02-15T19:43:59.720Z,31.60
2023-02-15T19:46:28.157Z,31.13
2023-02-15T19:48:56.354Z,32.55
2023-02-15T19:51:30.727Z,32.63
2023-02-15T19:53:58.970Z,31.15
2023-02-15T19:56:28.614Z,32.45
2023-02-15T19:58:59.906Z,34.03
2023-02-15T20:03:56.705Z,33.20
2023-02-15T20:06:24.683Z,31.88
2023-02-15T20:08:52.875Z,35.30
2023-02-15T20:11:22.961Z,34.80
2023-02-15T20:13:50.887Z,33.20
2023-02-15T20:16:18.805Z,35.97
2023-02-15T20:18:47.581Z,36.80
2023-02-15T20:21:17.503Z,35.63
2023-02-15T20:23:49.035Z,35.78
2023-02-15T20:26:19.272Z,32.95
2023-02-15T20:28:47.837Z,34.33
2023-02-15T20:31:21.499Z,33.72
2023-02-15T20:33:50.445Z,33.72
2023-02-15T20:36:20.885Z,34.92
2023-02-15T20:38:49.933Z,32.60
2023-02-15T20:41:40.099Z,32.65
2023-02-15T20:44:20.113Z,33.40
2023-02-15T20:46:48.721Z,31.42
2023-02-15T20:49:16.643Z,32.90
2023-02-15T20:51:45.593Z,31.60
2023-02-15T20:54:22.354Z,29.92
2023-02-15T20:56:55.439Z,30.50
2023-02-15T20:59:33.939Z,30.00
2023-02-15T21:02:24.542Z,29.63
2023-02-15T21:04:52.776Z,30.67
2023-02-15T21:07:22.956Z,30.65
2023-02-15T21:09:50.974Z,33.08
2023-02-15T21:12:20.956Z,33.00
2023-02-15T21:14:49.072Z,32.60
2023-02-15T21:17:17.962Z,31.65
2023-02-15T21:19:45.914Z,31.92
2023-02-15T21:22:15.136Z,29.50
2023-02-15T21:24:51.916Z,27.70
2023-02-15T21:27:19.974Z,29.10
2023-02-15T21:29:47.863Z,30.83
2023-02-15T21:32:15.978Z,31.42
2023-02-15T21:34:43.895Z,30.33
2023-02-15T21:37:32.696Z,32.20
2023-02-15T21:40:00.715Z,27.10
2023-02-15T21:42:47.601Z,29.00
2023-02-15T21:45:38.574Z,28.48
2023-02-15T21:48:06.652Z,29.77
2023-02-15T21:50:54.863Z,28.88
2023-02-15T21:53:27.845Z,28.48
2023-02-15T21:55:58.343Z,29.27
2023-02-15T21:58:28.915Z,30.10
2023-02-15T22:00:58.959Z,29.77
2023-02-15T22:03:32.209Z,28.83
2023-02-15T22:06:00.300Z,29.05
2023-02-15T22:08:28.221Z,27.80
2023-02-15T22:10:57.563Z,28.13
2023-02-15T22:13:34.654Z,29.48
2023-02-15T22:16:03.991Z,41.03
2023-02-15T22:18:34.519Z,29.65
2023-02-15T22:21:04.153Z,28.43
2023-02-15T22:23:32.355Z,27.75
2023-02-15T22:26:23.542Z,28.50
2023-02-15T22:28:51.959Z,27.95
2023-02-15T22:31:24.446Z,29.15
2023-02-15T22:33:52.502Z,26.33
2023-02-15T22:36:31.468Z,27.67
2023-02-15T22:38:59.430Z,29.05
2023-02-15T22:41:30.861Z,29.25
2023-02-15T22:43:59.072Z,27.73
2023-02-15T22:46:27.670Z,27.17
2023-02-15T22:48:55.706Z,27.02
2023-02-15T22:51:25.283Z,27.67
2023-02-15T22:53:54.832Z,29.45
2023-02-15T22:56:44.832Z,27.98
2023-02-15T22:59:21.696Z,26.42
2023-02-15T23:01:53.159Z,26.10
2023-02-15T23:04:29.221Z,27.65
2023-02-15T23:07:00.514Z,27.98
2023-02-15T23:09:28.463Z,27.08
2023-02-15T23:11:56.322Z,25.67
2023-02-15T23:14:35.912Z,27.73
2023-02-15T23:17:04.080Z,27.15
2023-02-15T23:19:32.148Z,26.25
2023-02-15T23:22:00.016Z,25.73
2023-02-15T23:24:29.926Z,27.15
2023-02-15T23:27:18.752Z,26.55
2023-02-15T23:29:47.109Z,25.48
2023-02-15T23:32:16.441Z,26.45
2023-02-15T23:34:44.666Z,26.27
2023-02-15T23:37:27.004Z,26.30
2023-02-15T23:40:13.378Z,25.80
2023-02-15T23:42:41.885Z,25.15
2023-02-15T23:45:24.879Z,26.00
2023-02-15T23:48:28.977Z,25.73
2023-02-15T23:50:56.874Z,26.67
2023-02-15T23:53:24.763Z,24.05
2023-02-15T23:55:53.005Z,25.45
2023-02-15T23:58:24.776Z,25.67
